• Join FlightAware (Why Join?)
  • Login
  • US Flag 
01:49AM EDT


 

Airport Tracker/Info


-or-


 

Live Flight TrackerFlight Track Log ✈ BER6299 ✈ 17-Apr-2013 ✈ EDDH / HAM - EDDM / MUC

Flight Track Log - Related Links

Times and Time Zones

All times are in EDT time to prevent confusion due to time zone crossing. See the BER6299 flight status page for this flight to view local times or setup timezone preferences in your user account.

Time Position Orientation Groundspeed Altitude Reporting Facility
EDT Latitude Longitude Course Direction KTS MPH feet Rate Location/Type
02:37AM 52.4696 10.4211 167° South  Level Estimated
02:38AM 52.3922 10.4492 168° South  Level Estimated
02:39AM 52.3147 10.4771 168° South  Level Estimated
02:40AM 52.2373 10.5050 168° South  Level Estimated
02:41AM 52.1598 10.5327 168° South  Level Estimated
02:42AM 52.0824 10.5604 168° South  Level Estimated
02:43AM 52.0049 10.5879 168° South  Level Estimated
02:44AM 51.9274 10.6154 168° South  Level Estimated
02:45AM 51.8499 10.6428 168° South  Level Estimated
02:46AM 51.7724 10.6700 168° South  Level Estimated
02:47AM 51.6949 10.6972 168° South  Level Estimated
02:48AM 51.6174 10.7243 168° South  Level Estimated
02:49AM 51.5399 10.7513 168° South  Level Estimated
02:50AM 51.4624 10.7782 168° South  Level Estimated
02:51AM 51.3849 10.8050 168° South  Level Estimated
02:52AM 51.3074 10.8317 168° South  Level Estimated
02:53AM 51.2298 10.8584 168° South  Level Estimated
02:54AM 51.1523 10.8849 168° South  Level Estimated
02:55AM 51.0747 10.9114 168° South  Level Estimated
02:56AM 50.9972 10.9377 168° South  Level Estimated
02:57AM 50.9196 10.9640 168° South  Level Estimated
02:58AM 50.8421 10.9902 168° South  Level Estimated
02:59AM 50.7645 11.0163 168° South  Level Estimated
03:00AM 50.6869 11.0423 168° South  Level Estimated
03:01AM 50.6093 11.0682 168° South  Level Estimated
03:02AM 50.5317 11.0941 168° South  Level Estimated
03:03AM 50.4542 11.1199 168° South  Level Estimated
03:04AM 50.3765 11.1455 168° South  Level Estimated
03:05AM 50.2990 11.1711 168° South  Level Estimated
03:06AM 50.2213 11.1966 168° South  Level Estimated
03:07AM 50.1437 11.2221 168° South  Level Estimated
03:08AM 50.0661 11.2474 168° South  Level Estimated
03:09AM 49.9885 11.2727 168° South  Level Estimated
03:10AM 49.9108 11.2978 168° South  Level Estimated
03:11AM 49.8332 11.3230 168° South  Level Estimated
03:12AM 49.7556 11.3480 168° South  Level Estimated
03:13AM 49.6779 11.3729 168° South  Level Estimated
03:14AM 49.6003 11.3978 168° South  Level Estimated
03:15AM 49.5226 11.4226 168° South  Level Estimated
03:16AM 49.4449 11.4473 168° South  Level Estimated
03:17AM 49.3673 11.4719 168° South  Level Estimated
03:18AM 49.2896 11.4964 168° South  Level Estimated
03:19AM 49.2119 11.5209 168° South  Level Estimated
03:20AM 49.1342 11.5453 168° South  Level Estimated
03:21AM 49.0565 11.5696 168° South  Level Estimated
03:22AM 48.9789 11.5938 168° South  Level Estimated
03:23AM 48.9011 11.6180 168° South  Level Estimated
03:24AM 48.8234 11.6421 168° South  Level Estimated
03:25AM 48.7457 11.6661 168° South  Level Estimated
03:26AM 48.6680 11.6901 169° South  Level Estimated
03:27AM 48.5903 11.7139 169° South  Level Estimated
03:28AM 48.5126 11.7377 169° South  Level Estimated
03:29AM 48.4348 11.7614 169° South  Level Estimated
03:30AM 48.3571 11.7851 169° South  Level Estimated
03:31AM 48.3538 11.7861 169° South  Level Estimated
03:32AM 48.3538 11.7861 318° Northwest  Level Estimated
03:33AM 48.3538 11.7861 318° Northwest  Level Estimated
03:34AM 48.3538 11.7861 318° Northwest  Level Estimated
03:35AM 48.3538 11.7861 318° Northwest  Level Estimated